Time;durP1;ratioP1;P1;durP2;ratioP2;P2;SDS_P1;SDS_P2;PMS_P1;PMS_P2;Temp;Humidity;BMP_temperature;BMP_pressure;BME280_temperature;BME280_humidity;BME280_pressure;Samples;Min_cycle;Max_cycle;Signal;HPM_P1;HPM_P2
2022/06/04 00:01:11;;;;;;;12.65;9.23;;;;;;;;;;5018100;28;20346;-57
2022/06/04 00:03:36;;;;;;;11.33;8.83;;;;;;;;;;5019011;28;20477;-57
2022/06/04 00:06:01;;;;;;;12.50;9.60;;;;;;;;;;5014476;28;20367;-57
2022/06/04 00:08:28;;;;;;;11.67;8.50;;;;;;;;;;5020452;28;20296;-57
2022/06/04 00:16:22;;;;;;;12.10;8.60;;;;;;;;;;5004725;28;20129;-57
2022/06/04 00:18:47;;;;;;;13.15;8.70;;;;;;;;;;5015001;28;20085;-57
2022/06/04 00:21:13;;;;;;;11.40;8.70;;;;;;;;;;5002974;28;20061;-57
2022/06/04 00:23:38;;;;;;;10.43;8.70;;;;;;;;;;5021635;28;20221;-57
2022/06/04 00:26:04;;;;;;;12.90;8.32;;;;;;;;;;5017415;28;20119;-57
2022/06/04 00:28:29;;;;;;;11.02;8.75;;;;;;;;;;5026412;28;20017;-56
2022/06/04 00:30:55;;;;;;;11.50;8.43;;;;;;;;;;5015547;28;20068;-58
2022/06/04 00:33:20;;;;;;;14.88;8.73;;;;;;;;;;5015158;28;20497;-56
2022/06/04 00:35:47;;;;;;;10.13;8.88;;;;;;;;;;5021330;28;20025;-57
2022/06/04 00:38:13;;;;;;;13.05;8.43;;;;;;;;;;5022881;28;20022;-56
2022/06/04 00:40:58;;;;;;;11.10;8.35;;;;;;;;;;5021129;28;20029;-56
2022/06/04 00:43:23;;;;;;;12.35;8.77;;;;;;;;;;5003014;28;20706;-56
2022/06/04 00:45:54;;;;;;;12.17;8.27;;;;;;;;;;5019061;28;20028;-57
2022/06/04 00:48:20;;;;;;;10.15;8.00;;;;;;;;;;5017652;28;20355;-56
2022/06/04 00:50:45;;;;;;;11.18;8.73;;;;;;;;;;4996669;28;20112;-57
2022/06/04 00:53:11;;;;;;;12.63;8.67;;;;;;;;;;5011657;28;20018;-56
2022/06/04 00:56:03;;;;;;;13.05;8.90;;;;;;;;;;5018210;28;20802;-56
2022/06/04 00:58:47;;;;;;;12.32;8.60;;;;;;;;;;5017482;28;20515;-56
2022/06/04 01:01:25;;;;;;;10.07;8.00;;;;;;;;;;5015405;28;20022;-56
2022/06/04 01:03:54;;;;;;;10.85;8.50;;;;;;;;;;5018998;28;20032;-56
2022/06/04 01:06:39;;;;;;;13.45;8.40;;;;;;;;;;5012206;28;20049;-56
2022/06/04 01:09:13;;;;;;;11.50;7.72;;;;;;;;;;5008030;28;20104;-56
2022/06/04 01:12:09;;;;;;;13.13;8.32;;;;;;;;;;5020841;28;20026;-56
2022/06/04 01:14:52;;;;;;;12.55;8.40;;;;;;;;;;5020835;28;20032;-56
2022/06/04 01:17:20;;;;;;;12.07;8.63;;;;;;;;;;5018785;28;20029;-55
2022/06/04 01:19:48;;;;;;;11.23;8.43;;;;;;;;;;5000342;28;20798;-56
2022/06/04 01:22:25;;;;;;;10.85;7.63;;;;;;;;;;5016407;28;20540;-56
2022/06/04 01:25:09;;;;;;;10.68;8.38;;;;;;;;;;5010436;28;20064;-56
2022/06/04 01:27:34;;;;;;;10.63;8.75;;;;;;;;;;4995690;28;20115;-56
2022/06/04 01:30:08;;;;;;;13.93;9.30;;;;;;;;;;5016554;28;20105;-55
2022/06/04 01:32:53;;;;;;;9.98;8.40;;;;;;;;;;5019088;28;20053;-56
2022/06/04 01:35:27;;;;;;;11.80;8.52;;;;;;;;;;4983463;28;20072;-57
2022/06/04 01:37:57;;;;;;;13.02;8.90;;;;;;;;;;5011955;28;20036;-56
2022/06/04 01:43:14;;;;;;;9.93;8.45;;;;;;;;;;5000685;28;20542;-56
2022/06/04 01:45:40;;;;;;;9.57;8.30;;;;;;;;;;5013971;28;20030;-56
2022/06/04 01:48:05;;;;;;;9.85;8.10;;;;;;;;;;5001558;28;20030;-56
2022/06/04 01:50:39;;;;;;;11.23;8.45;;;;;;;;;;5013528;28;20060;-56
2022/06/04 01:53:04;;;;;;;9.70;7.95;;;;;;;;;;5016614;28;20049;-56
2022/06/04 01:55:38;;;;;;;11.48;8.43;;;;;;;;;;5018696;28;20057;-56
2022/06/04 01:58:05;;;;;;;10.85;8.45;;;;;;;;;;5012398;28;20029;-57
2022/06/04 02:00:36;;;;;;;9.82;8.48;;;;;;;;;;4997710;28;20069;-56
2022/06/04 02:03:06;;;;;;;9.98;8.75;;;;;;;;;;4999340;28;20028;-57
2022/06/04 02:05:37;;;;;;;11.15;8.43;;;;;;;;;;5017702;28;20029;-57
2022/06/04 02:08:02;;;;;;;12.70;8.43;;;;;;;;;;5016120;28;20117;-56
2022/06/04 02:10:28;;;;;;;11.52;8.30;;;;;;;;;;5017079;28;20100;-56
2022/06/04 02:12:55;;;;;;;11.65;8.32;;;;;;;;;;5020395;28;20025;-57
2022/06/04 02:15:21;;;;;;;12.23;8.85;;;;;;;;;;5011355;28;20128;-56
2022/06/04 02:17:48;;;;;;;12.18;9.23;;;;;;;;;;5011222;28;20033;-57
2022/06/04 02:20:13;;;;;;;12.93;8.75;;;;;;;;;;5017430;28;20072;-57
2022/06/04 02:22:39;;;;;;;11.45;8.25;;;;;;;;;;5016329;28;20519;-57
2022/06/04 02:25:05;;;;;;;11.20;8.13;;;;;;;;;;5014171;28;20021;-57
2022/06/04 02:27:30;;;;;;;10.52;8.40;;;;;;;;;;5017911;28;20032;-57
2022/06/04 02:29:55;;;;;;;12.20;8.40;;;;;;;;;;5021929;28;20010;-57
2022/06/04 02:32:35;;;;;;;10.83;8.07;;;;;;;;;;5019853;28;20307;-56
2022/06/04 02:35:07;;;;;;;10.50;8.18;;;;;;;;;;5019405;28;20280;-56
2022/06/04 02:37:33;;;;;;;10.18;8.05;;;;;;;;;;5020383;28;20006;-57
2022/06/04 02:40:24;;;;;;;11.85;8.50;;;;;;;;;;5014206;28;20029;-56
2022/06/04 02:42:52;;;;;;;11.13;8.70;;;;;;;;;;5013257;28;20045;-57
2022/06/04 02:45:22;;;;;;;13.07;8.25;;;;;;;;;;5001726;28;20049;-57
2022/06/04 02:47:48;;;;;;;11.57;7.75;;;;;;;;;;4996221;28;20064;-57
2022/06/04 02:50:19;;;;;;;11.27;8.00;;;;;;;;;;4999078;28;20041;-56
2022/06/04 02:52:44;;;;;;;13.38;8.50;;;;;;;;;;5019339;28;20107;-57
2022/06/04 02:55:10;;;;;;;10.57;8.50;;;;;;;;;;5018368;28;20013;-57
2022/06/04 02:57:37;;;;;;;11.98;8.52;;;;;;;;;;5001964;28;20025;-56
2022/06/04 03:00:03;;;;;;;12.15;8.02;;;;;;;;;;5013187;28;20096;-56
2022/06/04 03:02:29;;;;;;;10.98;7.93;;;;;;;;;;4997665;28;20029;-57
2022/06/04 03:04:55;;;;;;;11.20;7.72;;;;;;;;;;4997313;28;20883;-56
2022/06/04 03:07:21;;;;;;;10.18;8.35;;;;;;;;;;5011815;28;20108;-56
2022/06/04 03:09:47;;;;;;;9.88;7.85;;;;;;;;;;5014579;28;20473;-56
2022/06/04 03:12:13;;;;;;;12.23;8.40;;;;;;;;;;5017280;28;20092;-57
2022/06/04 03:14:38;;;;;;;10.10;8.25;;;;;;;;;;5013671;28;20025;-57
2022/06/04 03:17:05;;;;;;;12.73;8.88;;;;;;;;;;5020233;28;20447;-56
2022/06/04 03:19:31;;;;;;;12.93;8.38;;;;;;;;;;5014468;28;20044;-56
2022/06/04 03:21:56;;;;;;;11.07;8.40;;;;;;;;;;5010299;28;20492;-56
2022/06/04 03:24:21;;;;;;;10.23;8.13;;;;;;;;;;5015754;28;20272;-57
2022/06/04 03:26:46;;;;;;;13.13;8.57;;;;;;;;;;5018197;28;20264;-56
2022/06/04 03:29:12;;;;;;;13.10;8.70;;;;;;;;;;5016846;28;20830;-56
2022/06/04 03:31:37;;;;;;;9.97;7.93;;;;;;;;;;5008661;28;20679;-57
2022/06/04 03:34:02;;;;;;;11.73;8.75;;;;;;;;;;5009315;28;20276;-56
2022/06/04 03:36:28;;;;;;;11.70;8.25;;;;;;;;;;5004295;28;20026;-56
2022/06/04 03:38:56;;;;;;;10.43;8.00;;;;;;;;;;5009742;28;20054;-56
2022/06/04 03:41:21;;;;;;;10.77;7.82;;;;;;;;;;4999790;28;20049;-56
2022/06/04 03:43:51;;;;;;;10.70;7.63;;;;;;;;;;5009058;28;20026;-56
2022/06/04 03:46:17;;;;;;;;;;;;;;;;;;5005541;28;20256;-56
2022/06/04 03:48:43;;;;;;;10.57;8.27;;;;;;;;;;5003999;28;19921;-56
2022/06/04 03:51:08;;;;;;;10.43;8.30;;;;;;;;;;5007642;28;20080;-56
2022/06/04 03:53:33;;;;;;;9.47;7.97;;;;;;;;;;4985906;28;20021;-56
2022/06/04 03:55:59;;;;;;;11.83;8.60;;;;;;;;;;5006037;28;20303;-56
2022/06/04 03:58:29;;;;;;;10.47;7.97;;;;;;;;;;5004643;28;20307;-56
2022/06/04 04:00:55;;;;;;;11.40;8.85;;;;;;;;;;5002371;28;20265;-56
2022/06/04 04:03:20;;;;;;;12.02;7.70;;;;;;;;;;5002710;28;20022;-56
2022/06/04 04:05:49;;;;;;;9.95;8.18;;;;;;;;;;5005701;28;20449;-56
2022/06/04 04:08:14;;;;;;;10.10;8.27;;;;;;;;;;5007664;28;20018;-57
2022/06/04 04:10:40;;;;;;;13.43;8.07;;;;;;;;;;4998927;28;20554;-56
2022/06/04 04:13:05;;;;;;;13.70;8.27;;;;;;;;;;5007226;28;20283;-56
2022/06/04 04:15:31;;;;;;;12.38;9.07;;;;;;;;;;4983590;28;20402;-55
2022/06/04 04:17:56;;;;;;;11.47;8.13;;;;;;;;;;5006109;28;20425;-57
2022/06/04 04:20:29;;;;;;;15.10;9.40;;;;;;;;;;5003312;28;20269;-56
2022/06/04 04:22:55;;;;;;;11.95;8.98;;;;;;;;;;5005532;28;20289;-56
2022/06/04 04:25:21;;;;;;;14.63;9.93;;;;;;;;;;5007486;28;20034;-55
2022/06/04 04:27:46;;;;;;;12.48;9.60;;;;;;;;;;4998170;28;20433;-54
2022/06/04 04:30:12;;;;;;;14.60;9.73;;;;;;;;;;5004315;28;20049;-58
2022/06/04 04:32:37;;;;;;;12.93;9.77;;;;;;;;;;5003273;28;20515;-57
2022/06/04 04:35:04;;;;;;;12.07;9.37;;;;;;;;;;5002395;28;20045;-56
2022/06/04 04:37:29;;;;;;;14.85;10.32;;;;;;;;;;5003539;28;20285;-58
2022/06/04 04:39:54;;;;;;;12.57;9.53;;;;;;;;;;5001837;28;20045;-57
2022/06/04 04:42:19;;;;;;;15.73;10.75;;;;;;;;;;5002258;28;20350;-60
2022/06/04 04:44:45;;;;;;;14.90;10.53;;;;;;;;;;4998541;28;20014;-58
2022/06/04 04:47:10;;;;;;;17.40;11.80;;;;;;;;;;5005345;28;20334;-58
2022/06/04 04:49:35;;;;;;;17.20;10.73;;;;;;;;;;5009760;28;20260;-56
2022/06/04 04:52:00;;;;;;;13.50;11.05;;;;;;;;;;5005218;28;20025;-57
2022/06/04 04:54:26;;;;;;;16.95;10.35;;;;;;;;;;5007242;28;20021;-60
2022/06/04 04:56:52;;;;;;;13.07;10.63;;;;;;;;;;5003784;28;20042;-58
2022/06/04 04:59:17;;;;;;;14.88;11.23;;;;;;;;;;4985775;28;20364;-61
2022/06/04 05:01:42;;;;;;;11.30;9.73;;;;;;;;;;4997637;28;20034;-57
2022/06/04 05:04:08;;;;;;;13.35;10.30;;;;;;;;;;5011985;28;20032;-57
2022/06/04 05:06:33;;;;;;;13.10;9.70;;;;;;;;;;5004680;28;20739;-57
2022/06/04 05:08:58;;;;;;;13.02;10.30;;;;;;;;;;5001254;28;20030;-57
2022/06/04 05:11:27;;;;;;;16.17;11.73;;;;;;;;;;5000892;28;20453;-57
2022/06/04 05:13:52;;;;;;;20.52;15.15;;;;;;;;;;4996979;28;20702;-58
2022/06/04 05:16:18;;;;;;;21.98;12.90;;;;;;;;;;4996648;28;20113;-60
2022/06/04 05:18:44;;;;;;;16.30;12.48;;;;;;;;;;4998830;28;20017;-64
2022/06/04 05:21:11;;;;;;;17.67;11.40;;;;;;;;;;5000423;28;20053;-58
2022/06/04 05:23:36;;;;;;;18.50;11.77;;;;;;;;;;4999891;28;20105;-59
2022/06/04 05:26:01;;;;;;;15.02;11.50;;;;;;;;;;4999332;28;20911;-59
2022/06/04 05:28:27;;;;;;;17.73;11.90;;;;;;;;;;4997256;28;20021;-61
2022/06/04 05:30:52;;;;;;;16.85;10.75;;;;;;;;;;4998742;28;20042;-61
2022/06/04 05:33:18;;;;;;;13.00;10.90;;;;;;;;;;4994294;28;20042;-58
2022/06/04 05:35:43;;;;;;;17.73;11.53;;;;;;;;;;5000257;28;20111;-58
2022/06/04 05:38:08;;;;;;;18.60;11.17;;;;;;;;;;5002142;28;20281;-58
2022/06/04 05:40:33;;;;;;;15.38;10.32;;;;;;;;;;4981351;28;20044;-58
2022/06/04 05:42:59;;;;;;;14.27;9.70;;;;;;;;;;5003571;28;20127;-61
2022/06/04 05:45:24;;;;;;;14.27;10.50;;;;;;;;;;5002143;28;20300;-59
2022/06/04 05:47:50;;;;;;;15.60;9.60;;;;;;;;;;4999118;28;20317;-57
2022/06/04 05:50:15;;;;;;;13.68;9.80;;;;;;;;;;4995988;28;20795;-58
2022/06/04 05:52:40;;;;;;;12.80;10.13;;;;;;;;;;4996185;28;20125;-58
2022/06/04 05:55:06;;;;;;;14.43;10.53;;;;;;;;;;4994486;28;20088;-58
2022/06/04 05:57:31;;;;;;;14.25;10.85;;;;;;;;;;4996491;28;20290;-59
2022/06/04 05:59:56;;;;;;;14.90;9.98;;;;;;;;;;4996740;28;20022;-58
2022/06/04 06:02:21;;;;;;;15.45;10.95;;;;;;;;;;4996150;28;20026;-61
2022/06/04 06:04:47;;;;;;;15.57;10.43;;;;;;;;;;4980140;28;20009;-57
2022/06/04 06:07:12;;;;;;;13.03;9.30;;;;;;;;;;5001857;28;20059;-57
2022/06/04 06:09:37;;;;;;;13.40;10.20;;;;;;;;;;4999226;28;20018;-58
2022/06/04 06:12:03;;;;;;;15.63;9.77;;;;;;;;;;4984880;28;20304;-58
2022/06/04 06:14:28;;;;;;;13.75;9.48;;;;;;;;;;4992803;28;20030;-59
2022/06/04 06:16:54;;;;;;;13.48;9.68;;;;;;;;;;5003255;28;20496;-58
2022/06/04 06:19:19;;;;;;;13.25;9.23;;;;;;;;;;4999152;28;20041;-60
2022/06/04 06:21:45;;;;;;;12.30;9.65;;;;;;;;;;4999377;28;20417;-56
2022/06/04 06:24:10;;;;;;;12.07;9.73;;;;;;;;;;5003279;28;20030;-58
2022/06/04 06:26:48;;;;;;;12.70;9.23;;;;;;;;;;4993143;28;20022;-61
2022/06/04 06:29:15;;;;;;;13.60;9.23;;;;;;;;;;4990477;28;20028;-60
2022/06/04 06:31:40;;;;;;;14.85;9.27;;;;;;;;;;5001835;28;20076;-60
2022/06/04 06:34:05;;;;;;;14.30;9.63;;;;;;;;;;5001901;28;20030;-59
2022/06/04 06:36:30;;;;;;;13.40;9.38;;;;;;;;;;5000091;28;20283;-59
2022/06/04 06:38:56;;;;;;;13.57;9.10;;;;;;;;;;4993898;28;20069;-60
2022/06/04 06:41:23;;;;;;;11.20;8.97;;;;;;;;;;4991358;28;20921;-61
2022/06/04 06:43:49;;;;;;;14.63;9.63;;;;;;;;;;4997751;28;20701;-58
2022/06/04 06:46:25;;;;;;;12.60;9.18;;;;;;;;;;4999288;28;20056;-59
2022/06/04 06:48:55;;;;;;;13.60;8.98;;;;;;;;;;4980351;28;20476;-60
2022/06/04 06:51:27;;;;;;;10.85;8.95;;;;;;;;;;5000744;28;20481;-61
2022/06/04 06:53:55;;;;;;;11.52;8.43;;;;;;;;;;5002496;28;20117;-55
2022/06/04 06:56:27;;;;;;;13.27;8.90;;;;;;;;;;5002340;28;20121;-60
2022/06/04 06:58:53;;;;;;;11.27;8.68;;;;;;;;;;4997456;28;20010;-60
2022/06/04 07:01:21;;;;;;;12.73;8.57;;;;;;;;;;5005083;28;20386;-57
2022/06/04 07:03:46;;;;;;;11.40;7.88;;;;;;;;;;4997332;28;20021;-61
2022/06/04 07:06:12;;;;;;;12.02;7.90;;;;;;;;;;5001090;28;20114;-55
2022/06/04 07:08:38;;;;;;;9.05;7.55;;;;;;;;;;5003425;28;20108;-57
2022/06/04 07:11:03;;;;;;;10.40;7.50;;;;;;;;;;5000951;28;20469;-57
2022/06/04 07:13:28;;;;;;;11.23;7.18;;;;;;;;;;5001993;28;20021;-58
2022/06/04 07:15:54;;;;;;;8.93;7.53;;;;;;;;;;5006224;28;20013;-57
2022/06/04 07:18:19;;;;;;;10.98;7.75;;;;;;;;;;5015306;28;20766;-59
2022/06/04 07:20:44;;;;;;;11.35;7.45;;;;;;;;;;5007234;28;20116;-59
2022/06/04 07:23:10;;;;;;;9.80;7.38;;;;;;;;;;5004317;28;20462;-58
2022/06/04 07:25:35;;;;;;;14.68;8.05;;;;;;;;;;5004578;28;20036;-55
2022/06/04 07:28:01;;;;;;;10.13;7.65;;;;;;;;;;5006985;28;20539;-57
2022/06/04 07:30:26;;;;;;;13.05;7.30;;;;;;;;;;5003467;28;20018;-57
2022/06/04 07:32:52;;;;;;;11.37;7.30;;;;;;;;;;5012806;28;21079;-56
2022/06/04 07:35:18;;;;;;;12.95;7.25;;;;;;;;;;5015224;28;20273;-57
2022/06/04 07:37:43;;;;;;;11.80;7.30;;;;;;;;;;5017850;28;20034;-57
2022/06/04 07:40:09;;;;;;;11.02;6.55;;;;;;;;;;5019006;28;20040;-57
2022/06/04 07:42:34;;;;;;;10.05;6.82;;;;;;;;;;5011762;28;20026;-56
2022/06/04 07:45:00;;;;;;;10.27;6.70;;;;;;;;;;5020917;28;20116;-57
2022/06/04 07:47:25;;;;;;;8.15;5.80;;;;;;;;;;5019516;28;20036;-57
2022/06/04 07:49:53;;;;;;;12.18;6.55;;;;;;;;;;5022873;28;20420;-57
2022/06/04 07:52:19;;;;;;;9.90;6.13;;;;;;;;;;5012118;28;20557;-56
2022/06/04 07:54:44;;;;;;;9.77;6.30;;;;;;;;;;5018980;28;20167;-57
2022/06/04 07:57:09;;;;;;;11.33;6.43;;;;;;;;;;5012142;28;20687;-56
2022/06/04 07:59:35;;;;;;;9.70;6.00;;;;;;;;;;5020437;28;20292;-57
2022/06/04 08:02:00;;;;;;;9.93;6.00;;;;;;;;;;5006032;28;20416;-57
2022/06/04 08:04:25;;;;;;;9.47;5.83;;;;;;;;;;5019872;28;20272;-56
2022/06/04 08:06:50;;;;;;;9.23;6.00;;;;;;;;;;5024608;28;21069;-57
2022/06/04 08:09:16;;;;;;;9.73;5.78;;;;;;;;;;5016492;28;20335;-56
2022/06/04 08:11:41;;;;;;;8.82;6.05;;;;;;;;;;4996989;28;20041;-56
2022/06/04 08:14:08;;;;;;;10.38;5.85;;;;;;;;;;5015985;28;20136;-56
2022/06/04 08:16:34;;;;;;;10.93;5.68;;;;;;;;;;5018846;28;20044;-56
2022/06/04 08:18:59;;;;;;;9.10;5.13;;;;;;;;;;5002755;28;20032;-56
2022/06/04 08:21:24;;;;;;;7.50;5.25;;;;;;;;;;5018037;28;20462;-56
2022/06/04 08:23:50;;;;;;;9.23;5.37;;;;;;;;;;5016839;28;20974;-56
2022/06/04 08:26:15;;;;;;;10.23;5.07;;;;;;;;;;5014676;28;20368;-56
2022/06/04 08:28:40;;;;;;;10.43;5.13;;;;;;;;;;5016176;28;20275;-56
2022/06/04 08:31:06;;;;;;;11.00;5.17;;;;;;;;;;5019587;28;20128;-56
2022/06/04 08:33:32;;;;;;;9.88;5.18;;;;;;;;;;5021843;28;20279;-56
2022/06/04 08:35:57;;;;;;;9.20;5.27;;;;;;;;;;5018280;28;20021;-56
2022/06/04 08:38:22;;;;;;;8.18;5.40;;;;;;;;;;5017792;28;20854;-56
2022/06/04 08:40:57;;;;;;;9.43;5.30;;;;;;;;;;5014018;28;20014;-56
2022/06/04 08:43:24;;;;;;;9.73;5.38;;;;;;;;;;5012197;28;20018;-56
2022/06/04 08:45:49;;;;;;;11.48;5.43;;;;;;;;;;5022020;28;20013;-56
2022/06/04 08:48:19;;;;;;;7.72;5.05;;;;;;;;;;5018790;28;20574;-56
2022/06/04 08:50:44;;;;;;;7.28;4.82;;;;;;;;;;5014221;28;20026;-56
2022/06/04 08:53:13;;;;;;;9.50;5.05;;;;;;;;;;4988623;28;20037;-56
2022/06/04 08:58:40;;;;;;;11.30;4.65;;;;;;;;;;5000411;28;20059;-56
2022/06/04 09:01:27;;;;;;;8.15;4.70;;;;;;;;;;5015674;28;20032;-56
2022/06/04 09:04:11;;;;;;;8.85;4.63;;;;;;;;;;5013265;28;20089;-57
2022/06/04 09:06:42;;;;;;;7.10;4.45;;;;;;;;;;5020545;28;20044;-57
2022/06/04 09:09:10;;;;;;;7.82;4.45;;;;;;;;;;5018126;28;20014;-56
2022/06/04 09:11:41;;;;;;;7.13;4.55;;;;;;;;;;5017759;28;20045;-56
2022/06/04 09:14:22;;;;;;;7.20;4.47;;;;;;;;;;5019686;28;20100;-56
2022/06/04 09:16:52;;;;;;;7.80;4.55;;;;;;;;;;5015263;28;20033;-57
2022/06/04 09:19:18;;;;;;;7.60;4.82;;;;;;;;;;5017995;28;20053;-57
2022/06/04 09:21:43;;;;;;;8.25;4.43;;;;;;;;;;5015952;28;20107;-56
2022/06/04 09:24:09;;;;;;;7.43;4.63;;;;;;;;;;5019213;28;20079;-56
2022/06/04 09:26:57;;;;;;;7.40;4.13;;;;;;;;;;5011733;28;20272;-56
2022/06/04 09:29:31;;;;;;;9.85;4.68;;;;;;;;;;4990321;28;20143;-56
2022/06/04 09:32:44;;;;;;;7.97;4.70;;;;;;;;;;4999183;28;20133;-56
2022/06/04 09:35:10;;;;;;;8.95;4.82;;;;;;;;;;4938002;29;20090;-56
2022/06/04 09:37:42;;;;;;;8.98;5.53;;;;;;;;;;4936330;28;20031;-56
2022/06/04 09:40:15;;;;;;;7.68;4.72;;;;;;;;;;4969948;28;20034;-56
2022/06/04 09:42:41;;;;;;;5.90;4.10;;;;;;;;;;4999921;28;20025;-56
2022/06/04 09:45:06;;;;;;;6.57;4.10;;;;;;;;;;4993622;28;20030;-56
2022/06/04 09:47:41;;;;;;;6.80;4.28;;;;;;;;;;4982593;28;20296;-57
2022/06/04 09:50:19;;;;;;;12.90;4.72;;;;;;;;;;4988890;28;20030;-58
2022/06/04 09:52:44;;;;;;;14.98;5.22;;;;;;;;;;4999366;28;20496;-60
2022/06/04 09:55:15;;;;;;;14.75;5.57;;;;;;;;;;5002076;28;20026;-56
2022/06/04 09:57:41;;;;;;;9.90;4.32;;;;;;;;;;4997473;28;20118;-57
2022/06/04 10:00:19;;;;;;;9.73;4.60;;;;;;;;;;4990082;28;20562;-58
2022/06/04 10:02:54;;;;;;;10.40;4.90;;;;;;;;;;4992668;28;20037;-57
2022/06/04 10:05:20;;;;;;;7.30;4.20;;;;;;;;;;4980589;28;20055;-61
2022/06/04 10:07:45;;;;;;;7.10;4.60;;;;;;;;;;4997058;28;20034;-68
2022/06/04 10:10:22;;;;;;;8.87;4.90;;;;;;;;;;4998036;28;20493;-61
2022/06/04 10:15:37;;;;;;;8.00;4.47;;;;;;;;;;4994623;28;20125;-60
2022/06/04 10:18:14;;;;;;;9.50;4.13;;;;;;;;;;4999376;28;20030;-60
2022/06/04 10:20:39;;;;;;;8.38;4.63;;;;;;;;;;4994980;28;20037;-60
2022/06/04 10:23:05;;;;;;;9.07;4.60;;;;;;;;;;4996973;28;20488;-60
2022/06/04 10:25:41;;;;;;;8.90;4.50;;;;;;;;;;4988304;28;20037;-51
2022/06/04 10:28:14;;;;;;;7.18;5.00;;;;;;;;;;4997637;28;20034;-52
2022/06/04 10:30:48;;;;;;;7.07;4.30;;;;;;;;;;4987069;28;20030;-52
2022/06/04 10:33:22;;;;;;;7.45;5.05;;;;;;;;;;5018619;28;20037;-52
2022/06/04 10:35:53;;;;;;;6.35;4.68;;;;;;;;;;5014945;28;20025;-50
2022/06/04 10:38:29;;;;;;;6.72;4.47;;;;;;;;;;5017009;28;20476;-52
2022/06/04 10:41:02;;;;;;;7.10;4.55;;;;;;;;;;5007893;28;20017;-51
2022/06/04 10:43:30;;;;;;;7.82;4.43;;;;;;;;;;5014651;28;20034;-55
2022/06/04 10:45:58;;;;;;;10.70;6.32;;;;;;;;;;5009180;28;20485;-53
2022/06/04 10:48:26;;;;;;;7.47;5.20;;;;;;;;;;5018597;28;20026;-53
2022/06/04 10:51:38;;;;;;;8.25;5.28;;;;;;;;;;5021007;28;20052;-53
2022/06/04 10:53:43;;;;;;;7.60;5.32;;;;;;;;;;5001191;28;20119;-53
2022/06/04 10:56:11;;;;;;;8.05;5.05;;;;;;;;;;5013656;28;20025;-53
2022/06/04 10:58:41;;;;;;;7.13;5.05;;;;;;;;;;5000569;28;20033;-54
2022/06/04 11:01:12;;;;;;;9.25;5.65;;;;;;;;;;4993323;28;20033;-52
2022/06/04 11:03:56;;;;;;;11.02;5.28;;;;;;;;;;5011891;28;20099;-53
2022/06/04 11:06:24;;;;;;;8.43;5.45;;;;;;;;;;5017736;28;20025;-54
2022/06/04 11:08:56;;;;;;;6.80;5.25;;;;;;;;;;5004746;28;20025;-53
2022/06/04 11:11:26;;;;;;;6.13;4.88;;;;;;;;;;5017875;28;20662;-54
2022/06/04 11:14:11;;;;;;;6.55;4.72;;;;;;;;;;5017979;28;20030;-53
2022/06/04 11:16:38;;;;;;;9.07;5.47;;;;;;;;;;4994708;28;20026;-53
2022/06/04 11:19:10;;;;;;;7.88;5.15;;;;;;;;;;5007681;28;20040;-53
2022/06/04 11:21:39;;;;;;;10.38;5.88;;;;;;;;;;5009119;28;20037;-52
2022/06/04 11:24:11;;;;;;;7.68;5.57;;;;;;;;;;5013234;28;20132;-53
2022/06/04 11:26:55;;;;;;;7.65;5.38;;;;;;;;;;5009359;28;20108;-52
2022/06/04 11:29:20;;;;;;;7.55;5.68;;;;;;;;;;5022011;28;20013;-53
2022/06/04 11:32:06;;;;;;;8.23;5.43;;;;;;;;;;5006709;28;20065;-53
2022/06/04 11:34:51;;;;;;;8.30;5.78;;;;;;;;;;4998551;28;20049;-53
2022/06/04 11:37:19;;;;;;;10.02;5.80;;;;;;;;;;4993739;28;20033;-53
2022/06/04 11:39:53;;;;;;;6.43;5.57;;;;;;;;;;5004016;28;20046;-52
2022/06/04 11:42:37;;;;;;;8.73;5.85;;;;;;;;;;4999264;28;20027;-53
2022/06/04 11:45:38;;;;;;;9.88;5.47;;;;;;;;;;4993938;28;20026;-53
2022/06/04 11:48:03;;;;;;;9.35;6.05;;;;;;;;;;4955557;28;20387;-53
2022/06/04 11:50:33;;;;;;;8.90;5.75;;;;;;;;;;4993541;28;20516;-52
2022/06/04 11:53:12;;;;;;;8.48;6.13;;;;;;;;;;4984444;28;20088;-53
2022/06/04 11:55:45;;;;;;;7.20;5.73;;;;;;;;;;4982376;28;20014;-53
2022/06/04 11:58:29;;;;;;;7.75;5.78;;;;;;;;;;4984034;28;20034;-54
2022/06/04 12:00:57;;;;;;;7.78;5.38;;;;;;;;;;4998828;28;21445;-55
2022/06/04 12:03:40;;;;;;;7.43;5.95;;;;;;;;;;4989048;28;20025;-53
2022/06/04 12:06:19;;;;;;;7.45;6.05;;;;;;;;;;4978479;28;20033;-54
2022/06/04 12:09:03;;;;;;;7.43;5.60;;;;;;;;;;4999612;28;20046;-53
2022/06/04 12:11:34;;;;;;;7.68;6.15;;;;;;;;;;5002272;28;20034;-53
2022/06/04 12:14:18;;;;;;;8.40;5.72;;;;;;;;;;5001271;28;20037;-52
2022/06/04 12:16:47;;;;;;;7.85;5.65;;;;;;;;;;4998572;28;20361;-53
2022/06/04 12:25:00;;;;;;;8.95;6.25;;;;;;;;;;4997321;28;20121;-53
2022/06/04 12:27:25;;;;;;;8.38;6.07;;;;;;;;;;4998920;28;20125;-53
2022/06/04 12:29:54;;;;;;;9.38;6.35;;;;;;;;;;4999996;28;20117;-52
2022/06/04 12:32:35;;;;;;;10.20;6.90;;;;;;;;;;5013620;28;20054;-53
2022/06/04 12:35:03;;;;;;;10.13;7.65;;;;;;;;;;5010718;28;20042;-54
2022/06/04 12:37:29;;;;;;;13.40;7.20;;;;;;;;;;5011241;28;20010;-53
2022/06/04 12:39:55;;;;;;;8.88;6.78;;;;;;;;;;5013984;28;20022;-53
2022/06/04 12:42:23;;;;;;;8.95;6.65;;;;;;;;;;5018365;28;20870;-52
2022/06/04 12:44:59;;;;;;;9.43;6.32;;;;;;;;;;5005056;28;20022;-53
2022/06/04 12:47:26;;;;;;;8.27;5.63;;;;;;;;;;5015964;28;20018;-53
2022/06/04 12:49:57;;;;;;;9.02;6.40;;;;;;;;;;5013574;28;20485;-53
2022/06/04 12:52:31;;;;;;;13.55;6.82;;;;;;;;;;5018500;28;20037;-53
2022/06/04 12:55:07;;;;;;;8.68;6.63;;;;;;;;;;5019667;28;20114;-54
2022/06/04 12:57:44;;;;;;;10.15;6.47;;;;;;;;;;5018145;28;20032;-53
2022/06/04 13:00:09;;;;;;;9.98;6.47;;;;;;;;;;5002937;28;20112;-53
2022/06/04 13:02:35;;;;;;;11.68;6.78;;;;;;;;;;5016548;28;20101;-52
2022/06/04 13:05:27;;;;;;;10.73;6.53;;;;;;;;;;5014770;28;20018;-52
2022/06/04 13:07:59;;;;;;;12.02;7.18;;;;;;;;;;5011858;28;20133;-52
2022/06/04 13:10:34;;;;;;;9.70;6.40;;;;;;;;;;5017616;28;20463;-52
2022/06/04 13:13:01;;;;;;;10.10;6.45;;;;;;;;;;5019048;28;20073;-53
2022/06/04 13:15:31;;;;;;;9.48;6.28;;;;;;;;;;5018685;28;20013;-53
2022/06/04 13:17:56;;;;;;;11.32;6.57;;;;;;;;;;5014941;28;20546;-52
2022/06/04 13:20:21;;;;;;;11.23;7.20;;;;;;;;;;4999442;28;20116;-53
2022/06/04 13:22:57;;;;;;;9.65;6.50;;;;;;;;;;5014528;28;20025;-52
2022/06/04 13:25:27;;;;;;;9.25;6.97;;;;;;;;;;5007770;28;20401;-53
2022/06/04 13:27:53;;;;;;;9.65;6.82;;;;;;;;;;5019148;28;20029;-53
2022/06/04 13:30:20;;;;;;;9.55;6.75;;;;;;;;;;5024622;28;20084;-50
2022/06/04 13:32:46;;;;;;;9.80;6.43;;;;;;;;;;5000513;28;20045;-52
2022/06/04 13:35:19;;;;;;;8.73;6.68;;;;;;;;;;4993644;28;20413;-53
2022/06/04 13:37:44;;;;;;;9.63;7.10;;;;;;;;;;5002316;28;20041;-54
2022/06/04 13:40:14;;;;;;;9.43;6.95;;;;;;;;;;4987810;28;20832;-53
2022/06/04 13:42:40;;;;;;;13.43;7.35;;;;;;;;;;4996833;28;20029;-53
2022/06/04 13:45:08;;;;;;;9.38;6.72;;;;;;;;;;4982152;28;20479;-54
2022/06/04 13:47:38;;;;;;;7.63;6.72;;;;;;;;;;4996338;28;20104;-53
2022/06/04 13:50:12;;;;;;;11.82;7.07;;;;;;;;;;4982534;28;20034;-53
2022/06/04 13:52:43;;;;;;;11.85;7.30;;;;;;;;;;4981955;28;20044;-53
2022/06/04 13:55:11;;;;;;;7.82;6.05;;;;;;;;;;4994360;28;20029;-52
2022/06/04 13:57:38;;;;;;;9.15;7.40;;;;;;;;;;4983932;28;20022;-52
2022/06/04 14:00:06;;;;;;;9.18;6.53;;;;;;;;;;4997231;28;20034;-53
2022/06/04 14:02:31;;;;;;;8.35;6.82;;;;;;;;;;5000905;28;20097;-52
2022/06/04 14:07:43;;;;;;;7.78;6.18;;;;;;;;;;4993967;28;20037;-52
2022/06/04 14:10:12;;;;;;;8.32;6.38;;;;;;;;;;4995575;28;20034;-52
2022/06/04 14:12:38;;;;;;;;;;;;;;;;;;5000000;28;20034;-52
2022/06/04 14:15:03;;;;;;;9.73;5.97;;;;;;;;;;4999497;28;19913;-52
2022/06/04 14:17:48;;;;;;;10.02;5.95;;;;;;;;;;4994040;28;20025;-52
2022/06/04 14:20:15;;;;;;;12.18;6.07;;;;;;;;;;5000637;28;20033;-54
2022/06/04 14:22:45;;;;;;;9.05;5.80;;;;;;;;;;4983991;28;20049;-52
2022/06/04 14:25:22;;;;;;;8.18;6.20;;;;;;;;;;4981395;28;20023;-52
2022/06/04 14:27:53;;;;;;;9.93;6.00;;;;;;;;;;5001676;28;20105;-50
2022/06/04 14:30:19;;;;;;;7.25;5.30;;;;;;;;;;4990684;28;20022;-50
2022/06/04 14:32:47;;;;;;;8.50;5.72;;;;;;;;;;5008544;28;20435;-51
2022/06/04 14:35:12;;;;;;;8.50;5.57;;;;;;;;;;5019125;28;20056;-51
2022/06/04 14:37:39;;;;;;;7.37;5.40;;;;;;;;;;5007210;28;20484;-51
2022/06/04 14:40:05;;;;;;;6.45;5.05;;;;;;;;;;5012977;28;20267;-51
2022/06/04 14:42:57;;;;;;;6.60;5.47;;;;;;;;;;5007464;28;20504;-50
2022/06/04 14:45:26;;;;;;;7.35;5.50;;;;;;;;;;5007334;28;20026;-50
2022/06/04 14:47:51;;;;;;;;;;;;;;;;;;5014746;28;20018;-51
2022/06/04 14:50:19;;;;;;;6.97;5.07;;;;;;;;;;5023885;28;19927;-51
2022/06/04 14:52:45;;;;;;;7.97;5.50;;;;;;;;;;5012608;28;20069;-53
2022/06/04 14:55:16;;;;;;;6.85;4.60;;;;;;;;;;5013675;28;20053;-51
2022/06/04 14:58:00;;;;;;;8.07;4.43;;;;;;;;;;5014882;28;20025;-51
2022/06/04 15:00:28;;;;;;;7.55;4.13;;;;;;;;;;5013377;28;20018;-51
2022/06/04 15:02:53;;;;;;;8.13;4.40;;;;;;;;;;5010938;28;20033;-52
2022/06/04 15:05:21;;;;;;;8.67;4.23;;;;;;;;;;5018214;28;20480;-52
2022/06/04 15:07:52;;;;;;;4.75;3.90;;;;;;;;;;5015114;28;20271;-52
2022/06/04 15:10:20;;;;;;;7.88;4.28;;;;;;;;;;5019249;28;20036;-52